AFL765 UDYZ-UUEE
Flight info
| Callsign | AFL765 |
|---|---|
| Flight time | N/A |
| Altitude | 35000 |
| Route | SEVAN T916 SUBUT N996 GIPAR A80 PIKAN DCT ITAKA/K0846F340 DCT EVZUN/K0843F360 DCT ZIZAR DCT VAZLU DCT UZZID DCT NOKLI/K0846F350 N72 WGD G481 OBABI T619 LUGIL/K0861F360 T619 UMRAL/K0867F350 P163 LADIM/K0867F360 P163 GOLRI L736 OLOPI OLOPI3G |
| Aircraft | A320/M-SDE3FGHIRWY/LB1 |
Departure
| Time | 2026-04-28 16:33 |
|---|---|
| Airport | Zvartnots International Airport (UDYZ) |
Arrival
| Time | N/A |
|---|---|
| Airport | Sheremetyevo International Airport (UUEE) |
| Time | Latitude | Longitude | Altitude | Speed | Heading |
|---|---|---|---|---|---|
| 2026-04-28 16:13 | 40.15092 | 44.39864 | 2838 ft | 0 kts | 360° |
| 2026-04-28 16:25 | 40.15089 | 44.39864 | 2837 ft | 2 kts | 360° |
| 2026-04-28 16:25 | 40.15067 | 44.39864 | 2835 ft | 2 kts | 0° |
| 2026-04-28 16:25 | 40.15051 | 44.39864 | 2836 ft | 2 kts | 2° |
| 2026-04-28 16:26 | 40.15035 | 44.39863 | 2836 ft | 2 kts | 3° |
| 2026-04-28 16:26 | 40.15018 | 44.39862 | 2837 ft | 2 kts | 6° |
| 2026-04-28 16:26 | 40.15002 | 44.39859 | 2835 ft | 2 kts | 14° |
| 2026-04-28 16:26 | 40.14986 | 44.39852 | 2835 ft | 2 kts | 64° |
| 2026-04-28 16:27 | 40.14984 | 44.39841 | 2836 ft | 0 kts | 90° |
| 2026-04-28 16:27 | 40.14984 | 44.39870 | 2836 ft | 6 kts | 90° |
| 2026-04-28 16:28 | 40.14984 | 44.39934 | 2837 ft | 8 kts | 90° |
| 2026-04-28 16:28 | 40.14984 | 44.39982 | 2837 ft | 9 kts | 89° |
| 2026-04-28 16:28 | 40.14873 | 44.40032 | 2837 ft | 19 kts | 180° |
| 2026-04-28 16:28 | 40.14757 | 44.40003 | 2836 ft | 16 kts | 219° |
| 2026-04-28 16:29 | 40.14733 | 44.39628 | 2832 ft | 27 kts | 270° |
| 2026-04-28 16:29 | 40.14734 | 44.39130 | 2829 ft | 28 kts | 270° |
| 2026-04-28 16:30 | 40.14733 | 44.38876 | 2829 ft | 27 kts | 266° |
| 2026-04-28 16:30 | 40.14728 | 44.38635 | 2830 ft | 26 kts | 270° |
| 2026-04-28 16:30 | 40.14729 | 44.38400 | 2832 ft | 26 kts | 268° |
| 2026-04-28 16:30 | 40.14725 | 44.38164 | 2828 ft | 25 kts | 269° |
| 2026-04-28 16:31 | 40.14724 | 44.37945 | 2826 ft | 23 kts | 270° |
| 2026-04-28 16:31 | 40.14724 | 44.37738 | 2825 ft | 22 kts | 270° |
| 2026-04-28 16:31 | 40.14723 | 44.37547 | 2823 ft | 20 kts | 270° |
| 2026-04-28 16:31 | 40.14742 | 44.37417 | 2821 ft | 13 kts | 299° |
| 2026-04-28 16:32 | 40.14726 | 44.37380 | 2822 ft | 4 kts | 128° |
| 2026-04-28 16:32 | 40.14727 | 44.37764 | 2823 ft | 69 kts | 89° |
| 2026-04-28 16:32 | 40.14729 | 44.38667 | 2830 ft | 127 kts | 89° |
| 2026-04-28 16:33 | 40.14760 | 44.40010 | 2851 ft | 169 kts | 86° |
| 2026-04-28 16:33 | 40.14744 | 44.40530 | 3053 ft | 169 kts | 90° |
| 2026-04-28 16:33 | 40.14699 | 44.43119 | 4143 ft | 175 kts | 90° |
| 2026-04-28 16:33 | 40.14656 | 44.44809 | 4324 ft | 197 kts | 102° |
| 2026-04-28 16:34 | 40.13862 | 44.46356 | 4482 ft | 224 kts | 146° |
| 2026-04-28 16:34 | 40.12290 | 44.46887 | 4785 ft | 253 kts | 184° |
| 2026-04-28 16:34 | 40.10598 | 44.45972 | 5182 ft | 276 kts | 221° |
| 2026-04-28 16:34 | 40.09547 | 44.43855 | 5857 ft | 286 kts | 254° |
| 2026-04-28 16:35 | 40.09526 | 44.41267 | 6590 ft | 290 kts | 287° |
| 2026-04-28 16:35 | 40.10535 | 44.39047 | 7243 ft | 295 kts | 318° |
| 2026-04-28 16:35 | 40.12313 | 44.37866 | 8010 ft | 288 kts | 353° |
| 2026-04-28 16:35 | 40.14298 | 44.38124 | 8766 ft | 286 kts | 25° |
| 2026-04-28 16:36 | 40.15825 | 44.39683 | 9484 ft | 285 kts | 56° |
| 2026-04-28 16:36 | 40.16812 | 44.41946 | 10147 ft | 290 kts | 63° |
| 2026-04-28 16:36 | 40.17792 | 44.44366 | 10362 ft | 313 kts | 63° |
| 2026-04-28 16:36 | 40.18845 | 44.46983 | 10513 ft | 337 kts | 64° |
| 2026-04-28 16:37 | 40.20003 | 44.49757 | 10637 ft | 359 kts | 57° |
| 2026-04-28 16:37 | 40.21551 | 44.52427 | 10928 ft | 373 kts | 50° |
| 2026-04-28 16:37 | 40.23307 | 44.54966 | 11504 ft | 379 kts | 48° |
| 2026-04-28 16:38 | 40.26985 | 44.60019 | 12718 ft | 387 kts | 46° |
| 2026-04-28 16:38 | 40.28873 | 44.62560 | 13316 ft | 391 kts | 46° |
| 2026-04-28 16:38 | 40.30750 | 44.65164 | 13897 ft | 395 kts | 47° |
| 2026-04-28 16:38 | 40.32633 | 44.67820 | 14430 ft | 398 kts | 47° |
| 2026-04-28 16:39 | 40.34533 | 44.70488 | 14964 ft | 402 kts | 47° |
| 2026-04-28 16:39 | 40.36439 | 44.73135 | 15477 ft | 405 kts | 47° |
| 2026-04-28 16:39 | 40.38391 | 44.75817 | 15993 ft | 408 kts | 47° |
| 2026-04-28 16:39 | 40.40378 | 44.78517 | 16492 ft | 411 kts | 46° |
| 2026-04-28 16:40 | 40.42451 | 44.81125 | 16997 ft | 414 kts | 44° |
| 2026-04-28 16:40 | 40.44586 | 44.83705 | 17445 ft | 419 kts | 44° |
| 2026-04-28 16:40 | 40.46727 | 44.86339 | 17917 ft | 422 kts | 44° |
| 2026-04-28 16:40 | 40.48810 | 44.89001 | 18384 ft | 424 kts | 46° |
| 2026-04-28 16:41 | 40.50895 | 44.91773 | 18794 ft | 427 kts | 46° |
| 2026-04-28 16:41 | 40.52907 | 44.94652 | 19216 ft | 429 kts | 53° |
| 2026-04-28 16:41 | 40.54568 | 44.97926 | 19578 ft | 431 kts | 62° |
| 2026-04-28 16:41 | 40.55521 | 45.00222 | 19843 ft | 432 kts | 62° |
| 2026-04-28 16:42 | 40.57484 | 45.04868 | 20400 ft | 435 kts | 62° |
| 2026-04-28 16:42 | 40.58980 | 45.08342 | 20781 ft | 438 kts | 61° |
| 2026-04-28 16:42 | 40.60472 | 45.11797 | 21182 ft | 440 kts | 61° |
| 2026-04-28 16:42 | 40.61985 | 45.15327 | 21548 ft | 443 kts | 61° |
| 2026-04-28 16:43 | 40.63514 | 45.18864 | 21910 ft | 446 kts | 60° |
| 2026-04-28 16:43 | 40.64558 | 45.21207 | 22104 ft | 449 kts | 60° |
| 2026-04-28 16:43 | 40.66124 | 45.24782 | 22414 ft | 452 kts | 61° |
| 2026-04-28 16:43 | 40.68198 | 45.29575 | 22871 ft | 455 kts | 62° |
| 2026-04-28 16:44 | 40.69704 | 45.33264 | 23224 ft | 458 kts | 63° |
| 2026-04-28 16:44 | 40.71181 | 45.36989 | 23550 ft | 460 kts | 63° |
| 2026-04-28 16:44 | 40.72169 | 45.39471 | 23759 ft | 462 kts | 63° |
| 2026-04-28 16:44 | 40.73687 | 45.43222 | 24032 ft | 465 kts | 62° |
| 2026-04-28 16:45 | 40.75202 | 45.47009 | 24285 ft | 467 kts | 66° |
| 2026-04-28 16:45 | 40.76312 | 45.51044 | 24532 ft | 468 kts | 76° |
| 2026-04-28 16:45 | 40.76981 | 45.55256 | 24805 ft | 469 kts | 83° |
| 2026-04-28 16:45 | 40.77413 | 45.59528 | 25054 ft | 471 kts | 84° |
| 2026-04-28 16:46 | 40.77866 | 45.63813 | 25299 ft | 473 kts | 83° |
| 2026-04-28 16:46 | 40.78325 | 45.68067 | 25542 ft | 475 kts | 83° |
| 2026-04-28 16:46 | 40.78792 | 45.72398 | 25775 ft | 478 kts | 83° |
| 2026-04-28 16:46 | 40.79253 | 45.76749 | 26003 ft | 480 kts | 84° |
| 2026-04-28 16:47 | 40.79707 | 45.81122 | 26217 ft | 483 kts | 84° |
| 2026-04-28 16:47 | 40.80156 | 45.85531 | 26439 ft | 485 kts | 84° |
| 2026-04-28 16:47 | 40.80605 | 45.89951 | 26661 ft | 487 kts | 84° |
| 2026-04-28 16:47 | 40.81063 | 45.94392 | 26920 ft | 488 kts | 84° |
| 2026-04-28 16:48 | 40.81551 | 45.98839 | 27248 ft | 489 kts | 82° |
| 2026-04-28 16:48 | 40.82166 | 46.03261 | 27540 ft | 489 kts | 81° |
| 2026-04-28 16:48 | 40.82770 | 46.07634 | 27780 ft | 491 kts | 83° |
| 2026-04-28 16:48 | 40.83274 | 46.12107 | 28008 ft | 492 kts | 84° |
| 2026-04-28 16:49 | 40.83695 | 46.16600 | 28294 ft | 492 kts | 85° |
| 2026-04-28 16:49 | 40.84083 | 46.21104 | 28614 ft | 493 kts | 85° |
| 2026-04-28 16:49 | 40.84491 | 46.25601 | 28924 ft | 493 kts | 85° |
| 2026-04-28 16:49 | 40.84919 | 46.30044 | 29225 ft | 494 kts | 85° |
| 2026-04-28 16:50 | 40.85369 | 46.34544 | 29534 ft | 494 kts | 85° |
| 2026-04-28 16:50 | 40.85806 | 46.39052 | 29854 ft | 494 kts | 85° |
| 2026-04-28 16:50 | 40.86191 | 46.43573 | 30167 ft | 494 kts | 86° |
| 2026-04-28 16:50 | 40.86560 | 46.48095 | 30445 ft | 494 kts | 86° |
| 2026-04-28 16:51 | 40.86940 | 46.52609 | 30712 ft | 495 kts | 86° |
| 2026-04-28 16:51 | 40.87343 | 46.57130 | 31003 ft | 495 kts | 86° |
| 2026-04-28 16:51 | 40.87766 | 46.61641 | 31285 ft | 494 kts | 86° |
| 2026-04-28 16:51 | 40.88202 | 46.66141 | 31531 ft | 495 kts | 86° |
| 2026-04-28 16:52 | 40.88641 | 46.70656 | 31747 ft | 496 kts | 86° |
| 2026-04-28 16:52 | 40.89077 | 46.75174 | 32015 ft | 496 kts | 86° |
| 2026-04-28 16:52 | 40.89659 | 46.79677 | 32280 ft | 499 kts | 79° |
| 2026-04-28 16:52 | 40.90693 | 46.84006 | 32547 ft | 502 kts | 70° |
| 2026-04-28 16:53 | 40.92254 | 46.88143 | 32811 ft | 505 kts | 58° |
| 2026-04-28 16:53 | 40.94201 | 46.92007 | 33035 ft | 505 kts | 58° |
| 2026-04-28 16:53 | 40.96070 | 46.95942 | 33287 ft | 505 kts | 60° |
| 2026-04-28 16:53 | 40.97832 | 46.99972 | 33525 ft | 505 kts | 63° |
| 2026-04-28 16:54 | 40.99512 | 47.04056 | 33766 ft | 505 kts | 64° |
| 2026-04-28 16:54 | 41.01124 | 47.08196 | 34044 ft | 505 kts | 66° |
| 2026-04-28 16:54 | 41.02651 | 47.12381 | 34299 ft | 505 kts | 67° |
| 2026-04-28 16:54 | 41.04185 | 47.16565 | 34536 ft | 504 kts | 66° |
| 2026-04-28 16:55 | 41.05777 | 47.20712 | 34771 ft | 505 kts | 64° |
| 2026-04-28 16:55 | 41.07438 | 47.24819 | 34983 ft | 505 kts | 63° |
| 2026-04-28 16:55 | 41.09148 | 47.28888 | 35150 ft | 506 kts | 62° |
| 2026-04-28 16:56 | 41.12642 | 47.37051 | 35188 ft | 509 kts | 62° |
| 2026-04-28 16:56 | 41.16076 | 47.45206 | 35187 ft | 509 kts | 63° |
| 2026-04-28 16:57 | 41.19563 | 47.53403 | 35172 ft | 512 kts | 57° |
| 2026-04-28 16:57 | 41.24298 | 47.60446 | 35166 ft | 512 kts | 38° |
| 2026-04-28 16:58 | 41.30252 | 47.65582 | 35143 ft | 509 kts | 28° |
| 2026-04-28 16:58 | 41.36338 | 47.70307 | 35149 ft | 509 kts | 28° |
| 2026-04-28 16:59 | 41.42453 | 47.75097 | 35158 ft | 510 kts | 28° |
| 2026-04-28 16:59 | 41.48568 | 47.79892 | 35173 ft | 510 kts | 27° |
| 2026-04-28 17:00 | 41.54689 | 47.84728 | 35180 ft | 511 kts | 28° |
| 2026-04-28 17:00 | 41.60811 | 47.89582 | 35183 ft | 511 kts | 28° |
| 2026-04-28 17:01 | 41.66931 | 47.94413 | 35197 ft | 511 kts | 27° |
| 2026-04-28 17:01 | 41.73019 | 47.99212 | 35228 ft | 511 kts | 27° |
| 2026-04-28 17:02 | 41.79150 | 48.04059 | 35217 ft | 512 kts | 27° |
| 2026-04-28 17:02 | 41.85389 | 48.08640 | 35216 ft | 511 kts | 25° |
| 2026-04-28 17:03 | 41.94608 | 48.15952 | 35216 ft | 513 kts | 27° |
| 2026-04-28 17:03 | 42.00792 | 48.20728 | 35216 ft | 513 kts | 27° |
| 2026-04-28 17:04 | 42.09763 | 48.28532 | 35239 ft | 516 kts | 36° |
| 2026-04-28 17:05 | 42.15009 | 48.35159 | 35235 ft | 519 kts | 48° |
| 2026-04-28 17:05 | 42.17368 | 48.38856 | 35231 ft | 519 kts | 50° |
| 2026-04-28 17:06 | 42.24156 | 48.50286 | 35228 ft | 520 kts | 51° |
| 2026-04-28 17:06 | 42.31253 | 48.61320 | 35217 ft | 520 kts | 46° |
| 2026-04-28 17:07 | 42.36310 | 48.68331 | 35221 ft | 520 kts | 44° |
| 2026-04-28 17:07 | 42.41097 | 48.75676 | 35221 ft | 521 kts | 52° |
| 2026-04-28 17:08 | 42.45518 | 48.83383 | 35221 ft | 521 kts | 50° |
| 2026-04-28 17:08 | 42.50214 | 48.90868 | 35218 ft | 521 kts | 48° |
| 2026-04-28 17:09 | 42.55031 | 48.98211 | 35219 ft | 521 kts | 45° |
| 2026-04-28 17:09 | 42.59949 | 49.05436 | 35211 ft | 522 kts | 47° |
| 2026-04-28 17:10 | 42.64706 | 49.12893 | 35209 ft | 522 kts | 50° |
| 2026-04-28 17:10 | 42.69300 | 49.20546 | 35208 ft | 522 kts | 47° |
| 2026-04-28 17:11 | 42.74158 | 49.27898 | 35203 ft | 522 kts | 46° |
| 2026-04-28 17:11 | 42.79023 | 49.35238 | 35243 ft | 521 kts | 46° |
| 2026-04-28 17:12 | 42.83920 | 49.42419 | 35235 ft | 518 kts | 40° |
| 2026-04-28 17:12 | 42.86717 | 49.45467 | 35235 ft | 512 kts | 29° |
| 2026-04-28 17:12 | 42.89866 | 49.47607 | 35228 ft | 501 kts | 13° |
| 2026-04-28 17:13 | 42.96578 | 49.49848 | 35211 ft | 492 kts | 2° |
| 2026-04-28 17:13 | 42.99949 | 49.50008 | 35210 ft | 479 kts | 349° |
| 2026-04-28 17:13 | 43.03281 | 49.49773 | 35202 ft | 481 kts | 351° |
| 2026-04-28 17:14 | 43.09997 | 49.49725 | 35229 ft | 484 kts | 355° |
| 2026-04-28 17:14 | 43.16726 | 49.49812 | 35220 ft | 482 kts | 354° |
| 2026-04-28 17:15 | 43.23403 | 49.49810 | 35218 ft | 482 kts | 354° |
| 2026-04-28 17:15 | 43.30136 | 49.50209 | 35212 ft | 483 kts | 356° |
| 2026-04-28 17:16 | 43.36862 | 49.50496 | 35234 ft | 481 kts | 355° |
| 2026-04-28 17:16 | 43.43536 | 49.50394 | 35227 ft | 478 kts | 351° |
| 2026-04-28 17:17 | 43.50129 | 49.49993 | 35426 ft | 476 kts | 352° |
| 2026-04-28 17:17 | 43.53436 | 49.49837 | 35670 ft | 475 kts | 352° |
| 2026-04-28 17:17 | 43.56749 | 49.49761 | 35942 ft | 475 kts | 354° |
| 2026-04-28 17:18 | 43.60053 | 49.49756 | 36154 ft | 476 kts | 355° |
| 2026-04-28 17:18 | 43.63375 | 49.49807 | 36207 ft | 478 kts | 355° |
| 2026-04-28 17:18 | 43.70032 | 49.49893 | 36205 ft | 477 kts | 355° |
| 2026-04-28 17:19 | 43.76684 | 49.49913 | 36209 ft | 477 kts | 354° |
| 2026-04-28 17:19 | 43.83130 | 49.48738 | 36211 ft | 459 kts | 332° |
| 2026-04-28 17:20 | 43.88110 | 49.46169 | 36209 ft | 466 kts | 341° |
| 2026-04-28 17:20 | 43.95461 | 49.43811 | 36213 ft | 467 kts | 341° |
| 2026-04-28 17:21 | 43.98505 | 49.42410 | 36211 ft | 456 kts | 328° |
| 2026-04-28 17:21 | 44.01379 | 49.40519 | 36228 ft | 455 kts | 328° |
| 2026-04-28 17:22 | 44.09919 | 49.34714 | 36216 ft | 456 kts | 328° |
| 2026-04-28 17:22 | 44.15584 | 49.30859 | 36210 ft | 456 kts | 328° |
| 2026-04-28 17:23 | 44.24151 | 49.25070 | 36221 ft | 457 kts | 328° |
| 2026-04-28 17:23 | 44.29872 | 49.21206 | 36218 ft | 457 kts | 328° |
| 2026-04-28 17:24 | 44.35592 | 49.17325 | 36215 ft | 457 kts | 328° |
| 2026-04-28 17:24 | 44.41304 | 49.13433 | 36229 ft | 457 kts | 328° |
| 2026-04-28 17:25 | 44.49889 | 49.07568 | 36222 ft | 458 kts | 328° |
| 2026-04-28 17:26 | 44.55620 | 49.03644 | 36217 ft | 458 kts | 328° |
| 2026-04-28 17:26 | 44.61318 | 48.99734 | 36217 ft | 459 kts | 328° |
| 2026-04-28 17:27 | 44.67058 | 48.95786 | 36213 ft | 459 kts | 328° |
| 2026-04-28 17:27 | 44.72805 | 48.91825 | 36211 ft | 459 kts | 328° |
| 2026-04-28 17:28 | 44.78546 | 48.87860 | 36224 ft | 460 kts | 328° |
| 2026-04-28 17:28 | 44.87135 | 48.81910 | 36216 ft | 460 kts | 328° |
| 2026-04-28 17:29 | 44.92885 | 48.77915 | 36214 ft | 460 kts | 328° |
| 2026-04-28 17:30 | 45.01511 | 48.71907 | 36225 ft | 461 kts | 328° |
| 2026-04-28 17:30 | 45.10122 | 48.65852 | 36221 ft | 460 kts | 327° |
| 2026-04-28 17:31 | 45.17754 | 48.60452 | 36239 ft | 460 kts | 327° |
| 2026-04-28 17:32 | 45.27298 | 48.53738 | 36227 ft | 460 kts | 327° |
| 2026-04-28 17:32 | 45.33037 | 48.49690 | 36220 ft | 460 kts | 327° |
| 2026-04-28 17:33 | 45.37802 | 48.46317 | 36237 ft | 460 kts | 327° |
| 2026-04-28 17:33 | 45.42596 | 48.42917 | 36229 ft | 459 kts | 327° |
| 2026-04-28 17:34 | 45.49243 | 48.38191 | 36218 ft | 459 kts | 327° |
| 2026-04-28 17:34 | 45.54961 | 48.34116 | 36244 ft | 458 kts | 327° |
| 2026-04-28 17:35 | 45.60660 | 48.30047 | 36232 ft | 458 kts | 327° |
| 2026-04-28 17:35 | 45.66652 | 48.26826 | 36211 ft | 472 kts | 345° |
| 2026-04-28 17:36 | 45.73098 | 48.25332 | 36200 ft | 472 kts | 345° |
| 2026-04-28 17:36 | 45.79588 | 48.23827 | 36201 ft | 473 kts | 345° |
| 2026-04-28 17:37 | 45.85901 | 48.21597 | 36196 ft | 457 kts | 327° |
| 2026-04-28 17:37 | 45.91567 | 48.17481 | 36194 ft | 456 kts | 326° |
| 2026-04-28 17:38 | 45.97245 | 48.13400 | 36232 ft | 457 kts | 326° |
| 2026-04-28 17:38 | 46.02931 | 48.09312 | 36235 ft | 457 kts | 326° |
| 2026-04-28 17:39 | 46.08586 | 48.05215 | 36242 ft | 457 kts | 326° |
| 2026-04-28 17:39 | 46.13948 | 48.00490 | 36249 ft | 444 kts | 313° |
| 2026-04-28 17:40 | 46.16164 | 47.97444 | 36283 ft | 436 kts | 304° |
| 2026-04-28 17:40 | 46.19646 | 47.90439 | 36278 ft | 427 kts | 296° |
| 2026-04-28 17:41 | 46.22871 | 47.83294 | 36265 ft | 426 kts | 296° |
| 2026-04-28 17:41 | 46.26115 | 47.76105 | 36221 ft | 427 kts | 296° |
| 2026-04-28 17:42 | 46.29331 | 47.68955 | 36216 ft | 426 kts | 296° |
| 2026-04-28 17:42 | 46.32559 | 47.61748 | 36237 ft | 426 kts | 296° |
| 2026-04-28 17:43 | 46.35779 | 47.54559 | 36226 ft | 425 kts | 296° |
| 2026-04-28 17:43 | 46.38993 | 47.47372 | 36221 ft | 425 kts | 296° |
| 2026-04-28 17:44 | 46.42194 | 47.40190 | 36212 ft | 424 kts | 296° |
| 2026-04-28 17:44 | 46.45392 | 47.32993 | 36235 ft | 424 kts | 295° |
| 2026-04-28 17:45 | 46.48564 | 47.25838 | 36223 ft | 424 kts | 295° |